Time;durP1;ratioP1;P1;durP2;ratioP2;P2;SDS_P1;SDS_P2;PMS_P1;PMS_P2;Temp;Humidity;BMP_temperature;BMP_pressure;BME280_temperature;BME280_humidity;BME280_pressure;Samples;Min_cycle;Max_cycle;Signal;HPM_P1;HPM_P2
2023/07/19 00:00:18;;;;;;;;;;;;;;;22.01;46.15;97670.88;5018838;28;19936;-63
2023/07/19 00:03:10;;;;;;;;;;;;;;;21.88;46.52;97687.03;5026513;28;19932;-62
2023/07/19 00:06:00;;;;;;;;;;;;;;;21.97;46.36;97690.22;5024667;28;19933;-63
2023/07/19 00:08:48;;;;;;;;;;;;;;;21.87;47.00;97679.91;5027452;28;19933;-65
2023/07/19 00:11:36;;;;;;;;;;;;;;;21.79;47.07;97669.25;5021158;28;19925;-65
2023/07/19 00:14:26;;;;;;;;;;;;;;;21.74;46.72;97670.41;5025945;28;19980;-65
2023/07/19 00:17:14;;;;;;;;;;;;;;;21.76;46.22;97676.34;5025971;28;19998;-64
2023/07/19 00:20:02;;;;;;;;;;;;;;;21.79;45.89;97681.09;5026298;28;19933;-64
2023/07/19 00:22:50;;;;;;;;;;;;;;;21.75;46.16;97687.78;5026576;28;19933;-64
2023/07/19 00:25:39;;;;;;;;;;;;;;;21.64;46.23;97679.47;5026489;28;19933;-64
2023/07/19 00:28:27;;;;;;;;;;;;;;;21.52;46.31;97690.84;5029231;28;19925;-64
2023/07/19 00:31:16;;;;;;;;;;;;;;;21.47;46.86;97688.50;5025278;28;19929;-64
2023/07/19 00:34:05;;;;;;;;;;;;;;;21.39;47.43;97688.44;5029649;28;20010;-65
2023/07/19 00:36:53;;;;;;;;;;;;;;;21.37;47.64;97684.50;5024318;28;19933;-63
2023/07/19 00:39:42;;;;;;;;;;;;;;;21.34;47.83;97688.81;5028351;28;20298;-63
2023/07/19 00:42:30;;;;;;;;;;;;;;;21.29;48.08;97683.63;5016799;28;19936;-65
2023/07/19 00:45:18;;;;;;;;;;;;;;;21.35;47.98;97679.34;5023947;28;20008;-65
2023/07/19 00:48:08;;;;;;;;;;;;;;;21.29;48.10;97674.53;5046889;28;19935;-63
2023/07/19 00:50:57;;;;;;;;;;;;;;;21.31;48.22;97680.53;5022615;28;19925;-64
2023/07/19 00:53:46;;;;;;;;;;;;;;;21.28;48.51;97679.28;5018628;28;19929;-64
2023/07/19 00:56:34;;;;;;;;;;;;;;;21.18;48.32;97686.34;5024266;28;19982;-65
2023/07/19 00:59:25;;;;;;;;;;;;;;;21.19;48.87;97692.66;5022900;28;20038;-64
2023/07/19 01:02:13;;;;;;;;;;;;;;;21.18;48.92;97694.63;5023692;28;20039;-67
2023/07/19 01:05:03;;;;;;;;;;;;;;;21.06;49.32;97694.94;5024445;28;20018;-64
2023/07/19 01:07:53;;;;;;;;;;;;;;;21.12;49.48;97692.63;5024806;28;19929;-63
2023/07/19 01:10:42;;;;;;;;;;;;;;;20.99;49.95;97685.84;5026029;28;19929;-64
2023/07/19 01:13:31;;;;;;;;;;;;;;;21.03;49.96;97683.88;5029113;28;19924;-67
2023/07/19 01:16:19;;;;;;;;;;;;;;;21.11;49.78;97682.75;5022504;28;19925;-63
2023/07/19 01:19:08;;;;;;;;;;;;;;;21.12;50.01;97684.31;5027867;28;19936;-63
2023/07/19 01:21:57;;;;;;;;;;;;;;;21.05;50.15;97682.31;5024083;28;21610;-64
2023/07/19 01:24:47;;;;;;;;;;;;;;;20.97;50.21;97688.19;5034503;28;20465;-64
2023/07/19 01:27:35;;;;;;;;;;;;;;;20.85;50.30;97676.28;5024979;28;19925;-63
2023/07/19 01:30:24;;;;;;;;;;;;;;;20.78;50.40;97670.72;5019758;28;19933;-64
2023/07/19 01:33:12;;;;;;;;;;;;;;;20.58;51.30;97663.88;5037953;28;19936;-63
2023/07/19 01:36:11;;;;;;;;;;;;;;;20.57;51.05;97659.53;5025873;28;19939;-63
2023/07/19 01:38:59;;;;;;;;;;;;;;;20.63;51.07;97667.06;5023976;28;19933;-66
2023/07/19 01:41:48;;;;;;;;;;;;;;;20.66;50.83;97662.72;5023794;28;20018;-63
2023/07/19 01:44:37;;;;;;;;;;;;;;;20.54;51.22;97657.53;5025022;28;19967;-64
2023/07/19 01:47:25;;;;;;;;;;;;;;;20.50;51.31;97657.50;5025315;28;19925;-63
2023/07/19 01:50:13;;;;;;;;;;;;;;;20.55;51.24;97653.59;5020184;28;20432;-64
2023/07/19 01:53:01;;;;;;;;;;;;;;;20.62;51.55;97664.69;5024744;28;19925;-63
2023/07/19 01:55:50;;;;;;;;;;;;;;;20.62;51.12;97668.25;5016873;28;19933;-64
2023/07/19 01:58:39;;;;;;;;;;;;;;;20.54;51.67;97668.56;5018546;28;19936;-64
2023/07/19 02:01:52;;;;;;;;;;;;;;;20.45;51.88;97665.31;5036295;28;19952;-63
2023/07/19 02:04:40;;;;;;;;;;;;;;;20.41;52.29;97671.59;5026167;28;19929;-64
2023/07/19 02:07:29;;;;;;;;;;;;;;;20.36;52.79;97671.94;5017129;28;19940;-64
2023/07/19 02:10:18;;;;;;;;;;;;;;;20.20;53.41;97676.94;5023102;28;20042;-64
2023/07/19 02:13:07;;;;;;;;;;;;;;;19.99;53.76;97672.00;5026341;28;19929;-64
2023/07/19 02:15:57;;;;;;;;;;;;;;;19.89;53.99;97673.47;5022793;28;19933;-63
2023/07/19 02:18:45;;;;;;;;;;;;;;;20.05;53.79;97675.22;5023951;28;20008;-64
2023/07/19 02:21:33;;;;;;;;;;;;;;;20.04;53.85;97662.59;5031207;28;20013;-63
2023/07/19 02:24:22;;;;;;;;;;;;;;;20.10;53.64;97667.38;5024646;28;19928;-64
2023/07/19 02:27:10;;;;;;;;;;;;;;;20.10;53.84;97672.13;5022747;28;19944;-63
2023/07/19 02:29:58;;;;;;;;;;;;;;;20.20;53.24;97687.97;5010755;28;19932;-63
2023/07/19 02:32:47;;;;;;;;;;;;;;;19.99;53.82;97682.25;5023201;28;20166;-64
2023/07/19 02:35:36;;;;;;;;;;;;;;;19.85;54.37;97678.16;5023392;28;20377;-64
2023/07/19 02:38:26;;;;;;;;;;;;;;;19.81;54.52;97673.78;5028515;28;20055;-63
2023/07/19 02:41:14;;;;;;;;;;;;;;;19.75;54.63;97676.09;5023778;28;20394;-68
2023/07/19 02:44:03;;;;;;;;;;;;;;;19.77;54.49;97681.25;5020113;28;19925;-63
2023/07/19 02:46:51;;;;;;;;;;;;;;;19.91;54.06;97688.84;5026085;28;19932;-64
2023/07/19 02:49:42;;;;;;;;;;;;;;;19.89;54.01;97679.00;5022622;28;20059;-64
2023/07/19 02:52:30;;;;;;;;;;;;;;;19.78;54.27;97677.31;5021399;28;19929;-64
2023/07/19 02:55:19;;;;;;;;;;;;;;;19.76;54.30;97674.94;5027888;28;19932;-64
2023/07/19 02:58:07;;;;;;;;;;;;;;;19.69;54.31;97687.84;5023566;28;19933;-64
2023/07/19 03:00:55;;;;;;;;;;;;;;;19.72;54.57;97698.13;5016668;28;19940;-63
2023/07/19 03:03:44;;;;;;;;;;;;;;;19.84;54.09;97695.88;5034620;28;19925;-63
2023/07/19 03:06:33;;;;;;;;;;;;;;;19.74;54.43;97699.31;5022788;28;19940;-66
2023/07/19 03:09:21;;;;;;;;;;;;;;;19.82;54.13;97689.16;5038122;28;20027;-64
2023/07/19 03:12:10;;;;;;;;;;;;;;;19.90;53.96;97685.31;5025809;28;19933;-64
2023/07/19 03:14:58;;;;;;;;;;;;;;;19.77;54.23;97698.56;5022472;28;19925;-63
2023/07/19 03:17:46;;;;;;;;;;;;;;;19.85;54.13;97704.94;5023636;28;19932;-64
2023/07/19 03:20:34;;;;;;;;;;;;;;;19.91;54.19;97697.13;5021761;28;19936;-65
2023/07/19 03:23:24;;;;;;;;;;;;;;;19.78;54.70;97691.88;5023558;28;20253;-64
2023/07/19 03:26:13;;;;;;;;;;;;;;;19.77;54.79;97689.50;5031660;28;19933;-64
2023/07/19 03:29:01;;;;;;;;;;;;;;;19.70;54.79;97695.72;5032749;28;20294;-63
2023/07/19 03:31:53;;;;;;;;;;;;;;;19.65;54.87;97696.03;5026408;28;19935;-66
2023/07/19 03:34:42;;;;;;;;;;;;;;;19.69;54.47;97688.63;5036535;28;20310;-64
2023/07/19 03:37:30;;;;;;;;;;;;;;;19.72;54.42;97685.13;5025314;28;19933;-64
2023/07/19 03:40:22;;;;;;;;;;;;;;;19.76;54.50;97699.75;5019752;28;20361;-62
2023/07/19 03:43:10;;;;;;;;;;;;;;;19.59;55.31;97689.28;5026690;28;20409;-64
2023/07/19 03:45:59;;;;;;;;;;;;;;;19.51;55.34;97702.16;5027641;28;20570;-64
2023/07/19 03:48:47;;;;;;;;;;;;;;;19.56;55.36;97703.81;5027949;28;20014;-63
2023/07/19 03:51:35;;;;;;;;;;;;;;;19.59;55.38;97692.03;5027716;28;20055;-63
2023/07/19 03:54:24;;;;;;;;;;;;;;;19.60;55.32;97694.44;5028408;28;19925;-63
2023/07/19 03:57:13;;;;;;;;;;;;;;;19.61;56.10;97696.03;5017451;28;19933;-65
2023/07/19 04:00:03;;;;;;;;;;;;;;;19.55;57.03;97708.53;5022458;28;20071;-63
2023/07/19 04:03:03;;;;;;;;;;;;;;;19.49;57.57;97714.72;5025996;28;19969;-64
2023/07/19 04:05:54;;;;;;;;;;;;;;;19.55;57.99;97713.25;5022707;28;20006;-62
2023/07/19 04:08:42;;;;;;;;;;;;;;;19.47;58.25;97717.06;5026090;28;20298;-62
2023/07/19 04:11:30;;;;;;;;;;;;;;;19.41;58.08;97718.56;5026647;28;20302;-63
2023/07/19 04:14:20;;;;;;;;;;;;;;;19.31;58.24;97720.00;5025390;28;19925;-62
2023/07/19 04:17:08;;;;;;;;;;;;;;;19.23;58.67;97704.53;5023863;28;20799;-62
2023/07/19 04:19:59;;;;;;;;;;;;;;;19.15;58.64;97706.41;5026396;28;20317;-62
2023/07/19 04:22:49;;;;;;;;;;;;;;;19.20;59.01;97708.84;5027054;28;19940;-62
2023/07/19 04:25:37;;;;;;;;;;;;;;;19.30;58.23;97713.72;5026547;28;19967;-64
2023/07/19 04:28:26;;;;;;;;;;;;;;;19.19;58.79;97721.03;5026625;28;19932;-62
2023/07/19 04:31:16;;;;;;;;;;;;;;;19.20;58.11;97719.06;5017169;28;19929;-63
2023/07/19 04:34:05;;;;;;;;;;;;;;;19.26;58.20;97715.63;5028014;28;19929;-62
2023/07/19 04:36:54;;;;;;;;;;;;;;;19.26;58.56;97715.63;5023777;28;20043;-61
2023/07/19 04:39:42;;;;;;;;;;;;;;;19.24;58.45;97717.16;5025974;28;20263;-63
2023/07/19 04:42:31;;;;;;;;;;;;;;;19.22;58.11;97717.53;5023055;28;19929;-63
2023/07/19 04:45:19;;;;;;;;;;;;;;;19.27;58.00;97716.41;5020162;28;20364;-62
2023/07/19 04:48:09;;;;;;;;;;;;;;;19.27;58.33;97706.19;5024071;28;19933;-62
2023/07/19 04:50:58;;;;;;;;;;;;;;;19.29;58.47;97698.34;5020787;28;20441;-63
2023/07/19 04:53:47;;;;;;;;;;;;;;;19.35;58.25;97702.38;5025867;28;19932;-63
2023/07/19 04:56:36;;;;;;;;;;;;;;;19.39;57.50;97688.66;5015235;28;19980;-62
2023/07/19 04:59:24;;;;;;;;;;;;;;;19.43;57.94;97702.44;5015401;28;20685;-67
2023/07/19 05:02:14;;;;;;;;;;;;;;;19.41;57.89;97702.03;5015851;28;19929;-63
2023/07/19 05:05:04;;;;;;;;;;;;;;;19.51;57.49;97701.38;5024993;28;19933;-64
2023/07/19 05:07:52;;;;;;;;;;;;;;;19.46;57.95;97697.00;5021138;28;19933;-64
2023/07/19 05:10:41;;;;;;;;;;;;;;;19.40;57.97;97689.44;5021726;28;19951;-63
2023/07/19 05:13:29;;;;;;;;;;;;;;;19.48;58.23;97696.59;5015453;28;19933;-63
2023/07/19 05:16:17;;;;;;;;;;;;;;;19.42;58.09;97687.88;5017998;28;20039;-62
2023/07/19 05:19:08;;;;;;;;;;;;;;;19.42;57.86;97687.09;5016975;28;20867;-64
2023/07/19 05:21:58;;;;;;;;;;;;;;;19.43;58.10;97691.44;5035102;28;19925;-65
2023/07/19 05:24:46;;;;;;;;;;;;;;;19.54;57.55;97689.59;5035985;28;19932;-65
2023/07/19 05:27:34;;;;;;;;;;;;;;;19.63;57.40;97692.88;5019992;28;20397;-66
2023/07/19 05:30:22;;;;;;;;;;;;;;;19.70;57.11;97692.97;5019915;28;19933;-64
2023/07/19 05:33:10;;;;;;;;;;;;;;;19.71;57.34;97691.81;5015725;28;19999;-66
2023/07/19 05:36:01;;;;;;;;;;;;;;;19.77;57.41;97689.50;5025470;28;19947;-65
2023/07/19 05:38:50;;;;;;;;;;;;;;;19.77;57.45;97687.53;5021080;28;20319;-64
2023/07/19 05:41:38;;;;;;;;;;;;;;;19.83;57.05;97686.03;5026821;28;19936;-65
2023/07/19 05:44:27;;;;;;;;;;;;;;;19.79;56.94;97682.44;5029703;28;19932;-64
2023/07/19 05:47:15;;;;;;;;;;;;;;;19.88;56.79;97685.69;5022227;28;19928;-64
2023/07/19 05:50:04;;;;;;;;;;;;;;;19.97;56.12;97690.09;5036214;28;20496;-65
2023/07/19 05:52:52;;;;;;;;;;;;;;;20.08;55.75;97686.28;5027292;28;19926;-64
2023/07/19 05:55:44;;;;;;;;;;;;;;;20.15;55.78;97683.59;5028941;28;19933;-64
2023/07/19 05:58:36;;;;;;;;;;;;;;;20.16;54.94;97692.66;5019704;28;19968;-66
2023/07/19 06:01:24;;;;;;;;;;;;;;;20.13;55.53;97685.94;5023225;28;19968;-64
2023/07/19 06:04:17;;;;;;;;;;;;;;;20.21;55.22;97689.56;5024250;28;20433;-63
2023/07/19 06:07:05;;;;;;;;;;;;;;;20.26;55.33;97685.66;5019026;28;20055;-65
2023/07/19 06:09:54;;;;;;;;;;;;;;;20.34;54.67;97679.81;5019960;28;19943;-63
2023/07/19 06:12:43;;;;;;;;;;;;;;;20.41;54.34;97682.63;5021781;28;19935;-63
2023/07/19 06:15:31;;;;;;;;;;;;;;;20.47;54.54;97685.06;5017332;28;20314;-65
2023/07/19 06:18:22;;;;;;;;;;;;;;;20.58;54.30;97686.75;5020968;28;20393;-64
2023/07/19 06:21:10;;;;;;;;;;;;;;;20.58;53.83;97685.94;5019147;28;19990;-64
2023/07/19 06:23:58;;;;;;;;;;;;;;;20.60;54.43;97689.09;5017345;28;19932;-63
2023/07/19 06:26:47;;;;;;;;;;;;;;;20.58;54.28;97685.94;5021206;28;20133;-63
2023/07/19 06:29:36;;;;;;;;;;;;;;;20.61;54.28;97686.00;5019711;28;19936;-64
2023/07/19 06:32:24;;;;;;;;;;;;;;;20.80;54.37;97687.69;5020580;28;21028;-64
2023/07/19 06:35:12;;;;;;;;;;;;;;;20.84;53.42;97688.50;5032409;28;20314;-61
2023/07/19 06:38:01;;;;;;;;;;;;;;;20.90;53.03;97686.97;5027459;28;20059;-62
2023/07/19 06:40:49;;;;;;;;;;;;;;;21.00;52.19;97685.44;5014719;28;19933;-61
2023/07/19 06:43:38;;;;;;;;;;;;;;;21.07;51.70;97684.69;5028771;28;20378;-61
2023/07/19 06:46:27;;;;;;;;;;;;;;;21.13;52.19;97677.63;5020461;28;20003;-61
2023/07/19 06:49:16;;;;;;;;;;;;;;;21.15;52.49;97680.81;5019681;28;19940;-61
2023/07/19 06:52:04;;;;;;;;;;;;;;;21.24;52.17;97692.28;5018239;28;19948;-62
2023/07/19 06:54:52;;;;;;;;;;;;;;;21.32;52.14;97680.13;5022010;28;19956;-62
2023/07/19 06:57:41;;;;;;;;;;;;;;;21.36;51.42;97688.41;5021217;28;20082;-63
2023/07/19 07:00:29;;;;;;;;;;;;;;;21.45;50.70;97695.16;5014612;28;20570;-62
2023/07/19 07:03:18;;;;;;;;;;;;;;;21.50;50.05;97685.72;5022332;28;20271;-64
2023/07/19 07:06:07;;;;;;;;;;;;;;;21.57;50.58;97684.94;5017257;28;19933;-61
2023/07/19 07:08:55;;;;;;;;;;;;;;;21.65;49.65;97684.59;5019599;28;19943;-60
2023/07/19 07:11:43;;;;;;;;;;;;;;;21.70;49.72;97695.28;5029421;28;20074;-61
2023/07/19 07:14:31;;;;;;;;;;;;;;;21.83;49.13;97692.94;5026931;28;20062;-61
2023/07/19 07:17:20;;;;;;;;;;;;;;;21.88;49.14;97694.53;5023052;28;20861;-62
2023/07/19 07:20:10;;;;;;;;;;;;;;;21.92;48.88;97692.56;5019090;28;19966;-61
2023/07/19 07:22:58;;;;;;;;;;;;;;;21.96;48.66;97696.94;5021400;28;19933;-61
2023/07/19 07:25:46;;;;;;;;;;;;;;;;;;5021158;28;20015;-61
2023/07/19 07:28:34;;;;;;;;;;;;;;;22.13;47.24;97694.63;5023729;28;19933;-64
2023/07/19 07:31:22;;;;;;;;;;;;;;;22.17;47.76;97689.88;5021015;28;19929;-63
2023/07/19 07:34:11;;;;;;;;;;;;;;;22.31;47.47;97692.66;5020700;28;19925;-62
2023/07/19 07:37:00;;;;;;;;;;;;;;;22.32;47.28;97683.19;5018734;28;20523;-61
2023/07/19 07:39:49;;;;;;;;;;;;;;;22.36;47.56;97686.72;5020186;28;20016;-61
2023/07/19 07:42:37;;;;;;;;;;;;;;;22.45;47.44;97686.34;5022427;28;19925;-63
2023/07/19 07:45:25;;;;;;;;;;;;;;;22.53;47.77;97673.28;5021932;28;20268;-62
2023/07/19 07:48:14;;;;;;;;;;;;;;;22.59;47.82;97677.25;5021852;28;19929;-63
2023/07/19 07:51:02;;;;;;;;;;;;;;;22.60;48.11;97678.84;5018594;28;19925;-63
2023/07/19 07:53:52;;;;;;;;;;;;;;;22.64;48.10;97679.63;5019961;28;19956;-62
2023/07/19 07:56:40;;;;;;;;;;;;;;;22.70;48.30;97678.81;5022258;28;19925;-62
2023/07/19 07:59:29;;;;;;;;;;;;;;;22.76;48.34;97676.44;5016427;28;20295;-62
2023/07/19 08:02:17;;;;;;;;;;;;;;;22.82;47.83;97672.06;5008114;28;20294;-63
2023/07/19 08:05:06;;;;;;;;;;;;;;;22.85;48.01;97682.38;5007092;28;21244;-62
2023/07/19 08:07:54;;;;;;;;;;;;;;;22.89;47.60;97679.59;5030033;28;19932;-62
2023/07/19 08:10:43;;;;;;;;;;;;;;;22.95;47.24;97678.81;5023915;28;19979;-62
2023/07/19 08:13:32;;;;;;;;;;;;;;;22.98;47.45;97671.69;5027636;28;19933;-62
2023/07/19 08:16:20;;;;;;;;;;;;;;;23.06;47.17;97669.69;5020664;28;19933;-62
2023/07/19 08:19:08;;;;;;;;;;;;;;;23.11;47.14;97674.81;5019381;28;19933;-63
2023/07/19 08:22:05;;;;;;;;;;;;;;;23.25;46.91;97670.03;5022840;28;19935;-62
2023/07/19 08:24:53;;;;;;;;;;;;;;;23.25;47.53;97675.56;5017419;28;19929;-62
2023/07/19 08:27:43;;;;;;;;;;;;;;;23.32;47.44;97666.44;5026222;28;19947;-62
2023/07/19 08:30:31;;;;;;;;;;;;;;;23.43;47.47;97675.50;5026162;28;19929;-63
2023/07/19 08:33:23;;;;;;;;;;;;;;;23.46;46.89;97674.69;5024357;28;20494;-63
2023/07/19 08:36:13;;;;;;;;;;;;;;;23.41;46.77;97677.09;5027934;28;19929;-63
2023/07/19 08:39:01;;;;;;;;;;;;;;;23.43;46.88;97669.94;5028473;28;19932;-63
2023/07/19 08:41:50;;;;;;;;;;;;;;;23.48;46.30;97666.75;5024626;28;19936;-63
2023/07/19 08:44:39;;;;;;;;;;;;;;;23.52;46.10;97672.28;5024329;28;20417;-62
2023/07/19 08:47:28;;;;;;;;;;;;;;;23.57;45.89;97663.56;5019661;28;20409;-63
2023/07/19 08:50:16;;;;;;;;;;;;;;;23.59;45.72;97660.38;5021183;28;19964;-63
2023/07/19 08:53:05;;;;;;;;;;;;;;;23.59;45.76;97665.91;5034627;28;20278;-62
2023/07/19 08:55:56;;;;;;;;;;;;;;;23.72;45.96;97658.78;5021122;28;19935;-63
2023/07/19 08:58:45;;;;;;;;;;;;;;;23.82;44.43;97655.16;5023664;28;19936;-63
2023/07/19 09:01:35;;;;;;;;;;;;;;;23.90;44.35;97658.66;5018725;28;19979;-63
2023/07/19 09:04:23;;;;;;;;;;;;;;;23.94;43.72;97651.09;5019649;28;20109;-63
2023/07/19 09:07:11;;;;;;;;;;;;;;;23.95;44.32;97655.47;5020159;28;19933;-63
2023/07/19 09:09:59;;;;;;;;;;;;;;;23.99;43.28;97650.69;5022572;28;19929;-62
2023/07/19 09:12:48;;;;;;;;;;;;;;;24.01;43.65;97643.50;5022103;28;20405;-63
2023/07/19 09:15:36;;;;;;;;;;;;;;;24.04;43.26;97653.81;5023222;28;19929;-64
2023/07/19 09:18:29;;;;;;;;;;;;;;;24.08;42.56;97641.91;5034014;28;20378;-64
2023/07/19 09:21:20;;;;;;;;;;;;;;;24.27;42.06;97635.78;5028191;28;19928;-61
2023/07/19 09:24:08;;;;;;;;;;;;;;;24.20;42.55;97633.09;5020507;28;20446;-61
2023/07/19 09:26:56;;;;;;;;;;;;;;;24.24;42.82;97628.31;5026361;28;19925;-61
2023/07/19 09:29:45;;;;;;;;;;;;;;;24.22;43.03;97630.69;5023296;28;19929;-62
2023/07/19 09:32:32;;;;;;;;;;;;;;;24.16;42.65;97622.00;5023303;28;20353;-61
2023/07/19 09:35:26;;;;;;;;;;;;;;;24.23;42.76;97627.50;5022607;28;20039;-62
2023/07/19 09:38:14;;;;;;;;;;;;;;;24.24;42.90;97628.31;5016712;28;19940;-61
2023/07/19 09:41:02;;;;;;;;;;;;;;;24.15;43.51;97631.53;5022260;28;19929;-61
2023/07/19 09:43:50;;;;;;;;;;;;;;;24.10;43.67;97622.84;5024482;28;19929;-60
2023/07/19 09:46:39;;;;;;;;;;;;;;;24.11;44.01;97624.44;5020247;28;19929;-62
2023/07/19 09:49:27;;;;;;;;;;;;;;;24.21;43.09;97612.44;5021919;28;19965;-61
2023/07/19 09:52:17;;;;;;;;;;;;;;;24.28;41.79;97623.50;5024450;28;19929;-62
2023/07/19 09:55:08;;;;;;;;;;;;;;;24.28;42.41;97612.38;5020003;28;19929;-62
2023/07/19 09:57:56;;;;;;;;;;;;;;;24.33;41.49;97609.16;5022354;28;19993;-62
2023/07/19 10:00:44;;;;;;;;;;;;;;;24.49;40.53;97615.00;5015648;28;19928;-63
2023/07/19 10:03:36;;;;;;;;;;;;;;;24.59;40.49;97609.78;5022258;28;20016;-62
2023/07/19 10:06:26;;;;;;;;;;;;;;;24.60;41.69;97614.13;5022817;28;20600;-62
2023/07/19 10:09:36;;;;;;;;;;;;;;;24.55;41.40;97598.69;5025544;28;19936;-62
2023/07/19 10:12:24;;;;;;;;;;;;;;;24.77;40.78;97600.06;5035978;28;19929;-62
2023/07/19 10:15:14;;;;;;;;;;;;;;;24.74;39.14;97594.53;5014434;28;20421;-61
2023/07/19 10:18:02;;;;;;;;;;;;;;;24.74;41.19;97594.53;5024800;28;20026;-61
2023/07/19 10:21:00;;;;;;;;;;;;;;;24.75;40.34;97593.34;5022157;28;19963;-60
2023/07/19 10:23:48;;;;;;;;;;;;;;;24.68;40.43;97608.09;5038263;28;19938;-62
2023/07/19 10:26:37;;;;;;;;;;;;;;;24.71;41.90;97601.69;5024818;28;19932;-62
2023/07/19 10:29:26;;;;;;;;;;;;;;;24.74;42.55;97594.53;5024482;28;19925;-62
2023/07/19 10:32:14;;;;;;;;;;;;;;;24.78;40.53;97598.06;5033239;28;19929;-63
2023/07/19 10:35:03;;;;;;;;;;;;;;;24.96;38.83;97601.44;5022732;28;19929;-62
2023/07/19 10:37:54;;;;;;;;;;;;;;;24.96;39.68;97601.44;5021531;28;19925;-61
2023/07/19 10:40:44;;;;;;;;;;;;;;;25.13;38.98;97596.09;5027055;28;19940;-62
2023/07/19 10:43:35;;;;;;;;;;;;;;;25.01;39.18;97589.06;5015652;28;19929;-62
2023/07/19 10:46:36;;;;;;;;;;;;;;;25.00;39.11;97602.19;5020349;28;19925;-62
2023/07/19 10:49:24;;;;;;;;;;;;;;;25.05;40.33;97589.84;5021423;28;19929;-61
2023/07/19 10:52:12;;;;;;;;;;;;;;;25.03;37.82;97606.91;5023833;28;19932;-61
2023/07/19 10:55:01;;;;;;;;;;;;;;;25.01;37.34;97592.66;5030808;28;19929;-62
2023/07/19 10:58:11;;;;;;;;;;;;;;;25.01;39.57;97589.88;5018852;28;19929;-63
2023/07/19 11:01:01;;;;;;;;;;;;;;;25.01;37.27;97586.31;5013049;28;20044;-61
2023/07/19 11:03:50;;;;;;;;;;;;;;;25.10;39.84;97591.41;5021737;28;20318;-61
2023/07/19 11:06:39;;;;;;;;;;;;;;;25.08;38.45;97592.56;5018292;28;19928;-61
2023/07/19 11:09:27;;;;;;;;;;;;;;;25.13;38.41;97593.34;5018170;28;19944;-61
2023/07/19 11:12:16;;;;;;;;;;;;;;;25.15;38.32;97591.72;5017683;28;20386;-61
2023/07/19 11:15:07;;;;;;;;;;;;;;;25.22;37.63;97590.84;5015364;28;19983;-61
2023/07/19 11:17:58;;;;;;;;;;;;;;;25.22;35.83;97577.72;5020942;28;20402;-61
2023/07/19 11:20:46;;;;;;;;;;;;;;;25.23;36.79;97589.63;5019969;28;20059;-61
2023/07/19 11:23:38;;;;;;;;;;;;;;;25.23;34.84;97576.53;5039531;28;20015;-60
2023/07/19 11:26:26;;;;;;;;;;;;;;;25.26;36.06;97586.81;5021626;28;19925;-60
2023/07/19 11:29:14;;;;;;;;;;;;;;;25.29;35.86;97579.63;5024165;28;20393;-61
2023/07/19 11:32:16;;;;;;;;;;;;;;;25.54;34.43;97584.84;5019209;28;19944;-62
2023/07/19 11:35:06;;;;;;;;;;;;;;;25.45;33.83;97592.91;5014857;28;20272;-60
2023/07/19 11:37:55;;;;;;;;;;;;;;;25.41;34.63;97576.31;5016489;28;19929;-60
2023/07/19 11:40:44;;;;;;;;;;;;;;;25.42;35.09;97580.66;5023423;28;19931;-61
2023/07/19 11:43:32;;;;;;;;;;;;;;;25.47;35.26;97584.97;5019798;28;19929;-60
2023/07/19 11:46:20;;;;;;;;;;;;;;;25.56;35.40;97591.56;5012614;28;19929;-60
2023/07/19 11:49:12;;;;;;;;;;;;;;;25.45;35.45;97588.16;5013512;28;19929;-65
2023/07/19 11:52:02;;;;;;;;;;;;;;;25.41;35.25;97594.97;5018869;28;19936;-62
2023/07/19 11:54:50;;;;;;;;;;;;;;;25.36;35.47;97590.66;5019369;28;20087;-68
2023/07/19 11:57:41;;;;;;;;;;;;;;;25.36;35.09;97573.19;5018977;28;19929;-63
2023/07/19 12:00:30;;;;;;;;;;;;;;;25.47;32.93;97601.66;5008685;28;19933;-66
2023/07/19 12:03:18;;;;;;;;;;;;;;;25.57;33.05;97590.38;5024178;28;19959;-64
2023/07/19 12:06:07;;;;;;;;;;;;;;;25.59;33.50;97587.16;5023372;28;19925;-64
2023/07/19 12:08:57;;;;;;;;;;;;;;;25.56;33.51;97574.88;5021900;28;19937;-64
2023/07/19 12:11:46;;;;;;;;;;;;;;;25.60;33.93;97578.41;5024798;28;20281;-65
2023/07/19 12:14:34;;;;;;;;;;;;;;;25.63;33.60;97576.78;5027838;28;19933;-63
2023/07/19 12:17:22;;;;;;;;;;;;;;;25.70;33.51;97575.88;5021890;28;20662;-64
2023/07/19 12:20:11;;;;;;;;;;;;;;;25.71;32.71;97569.13;5025132;28;20079;-65
2023/07/19 12:22:59;;;;;;;;;;;;;;;25.66;32.89;97573.16;5024373;28;19935;-63
2023/07/19 12:25:49;;;;;;;;;;;;;;;25.73;31.10;97569.50;5024776;28;20579;-65
2023/07/19 12:28:37;;;;;;;;;;;;;;;25.66;31.32;97575.94;5025454;28;20022;-66
2023/07/19 12:31:25;;;;;;;;;;;;;;;25.67;30.71;97576.72;5019038;28;19929;-65
2023/07/19 12:34:13;;;;;;;;;;;;;;;25.59;32.58;97573.25;5021434;28;20639;-64
2023/07/19 12:37:01;;;;;;;;;;;;;;;25.63;31.43;97565.66;5021982;28;19929;-64
2023/07/19 12:39:50;;;;;;;;;;;;;;;25.61;31.68;97562.50;5038602;28;19980;-64
2023/07/19 12:42:39;;;;;;;;;;;;;;;25.57;31.19;97557.00;5024403;28;19925;-63
2023/07/19 12:45:28;;;;;;;;;;;;;;;25.55;31.52;97564.97;5008020;28;19932;-64
2023/07/19 12:48:16;;;;;;;;;;;;;;;25.50;30.13;97557.09;5026469;28;20346;-64
2023/07/19 12:51:06;;;;;;;;;;;;;;;25.51;31.28;97544.75;5023398;28;20072;-64
2023/07/19 12:53:57;;;;;;;;;;;;;;;25.52;30.27;97543.56;5022511;28;20014;-65
2023/07/19 12:56:45;;;;;;;;;;;;;;;25.58;30.32;97541.88;5022338;28;19933;-66
2023/07/19 12:59:35;;;;;;;;;;;;;;;25.67;29.25;97532.22;5037783;28;20378;-65
2023/07/19 13:02:25;;;;;;;;;;;;;;;25.90;29.98;97521.16;5013847;28;19925;-65
2023/07/19 13:05:14;;;;;;;;;;;;;;;25.86;29.33;97517.63;5024520;28;19948;-64
2023/07/19 13:08:02;;;;;;;;;;;;;;;25.88;29.75;97508.84;5017854;28;20562;-69
2023/07/19 13:10:50;;;;;;;;;;;;;;;25.89;30.42;97504.84;5016887;28;19929;-67
2023/07/19 13:13:38;;;;;;;;;;;;;;;26.00;30.05;97511.84;5017588;28;19929;-68
2023/07/19 13:16:28;;;;;;;;;;;;;;;26.00;29.83;97500.72;5016300;28;19925;-66
2023/07/19 13:19:16;;;;;;;;;;;;;;;25.98;30.68;97497.53;5017848;28;19925;-66
2023/07/19 13:22:05;;;;;;;;;;;;;;;26.05;30.46;97491.88;5018154;28;20061;-67
2023/07/19 13:24:53;;;;;;;;;;;;;;;26.01;30.09;97495.94;5020782;28;19958;-66
2023/07/19 13:27:42;;;;;;;;;;;;;;;26.00;29.63;97488.78;5025641;28;19999;-63
2023/07/19 13:30:30;;;;;;;;;;;;;;;25.98;29.55;97486.41;5018104;28;19940;-65
2023/07/19 13:33:22;;;;;;;;;;;;;;;26.08;30.43;97479.09;5027411;28;20326;-65
2023/07/19 13:36:14;;;;;;;;;;;;;;;26.03;30.28;97472.00;5019953;28;19933;-64
2023/07/19 13:39:05;;;;;;;;;;;;;;;26.06;29.93;97479.53;5014591;28;19944;-65
2023/07/19 13:41:54;;;;;;;;;;;;;;;26.10;29.63;97482.25;5019741;28;19933;-67
2023/07/19 13:44:42;;;;;;;;;;;;;;;26.17;28.61;97486.91;5021106;28;19925;-63
2023/07/19 13:47:30;;;;;;;;;;;;;;;26.17;30.63;97472.97;5014579;28;19933;-63
2023/07/19 13:50:20;;;;;;;;;;;;;;;26.23;30.37;97474.06;5019808;28;20548;-66
2023/07/19 13:53:08;;;;;;;;;;;;;;;26.31;28.98;97475.47;5021675;28;20070;-64
2023/07/19 13:55:56;;;;;;;;;;;;;;;26.36;28.64;97466.63;5019567;28;19936;-64
2023/07/19 13:58:44;;;;;;;;;;;;;;;26.42;28.84;97466.94;5024757;28;19925;-64
2023/07/19 14:01:33;;;;;;;;;;;;;;;26.33;29.94;97473.06;5010204;28;19929;-66
2023/07/19 14:04:21;;;;;;;;;;;;;;;26.27;29.62;97472.00;5020079;28;19925;-66
2023/07/19 14:07:11;;;;;;;;;;;;;;;26.19;29.26;97462.97;5019437;28;19925;-64
2023/07/19 14:10:03;;;;;;;;;;;;;;;26.13;29.60;97459.91;5023953;28;20634;-67
2023/07/19 14:12:54;;;;;;;;;;;;;;;26.08;30.09;97463.16;5015237;28;19925;-66
2023/07/19 14:15:44;;;;;;;;;;;;;;;25.99;30.76;97459.34;5011383;28;19925;-64
2023/07/19 14:18:34;;;;;;;;;;;;;;;25.97;30.18;97457.00;5021392;28;19925;-65
2023/07/19 14:21:22;;;;;;;;;;;;;;;25.90;31.45;97468.28;5022107;28;19974;-65
2023/07/19 14:24:12;;;;;;;;;;;;;;;25.86;31.71;97464.75;5014976;28;20420;-65
2023/07/19 14:27:00;;;;;;;;;;;;;;;25.76;32.97;97474.06;5022799;28;20303;-63
2023/07/19 14:29:51;;;;;;;;;;;;;;;25.72;33.25;97464.97;5019359;28;19925;-63
2023/07/19 14:32:40;;;;;;;;;;;;;;;25.68;33.13;97464.25;5023369;28;19929;-64
2023/07/19 14:35:28;;;;;;;;;;;;;;;25.63;33.34;97465.53;5021165;28;19932;-64
2023/07/19 14:38:20;;;;;;;;;;;;;;;25.61;33.19;97473.47;5022837;28;20438;-64
2023/07/19 14:41:11;;;;;;;;;;;;;;;25.56;33.47;97471.19;5018710;28;19948;-64